Time;durP1;ratioP1;P1;durP2;ratioP2;P2;SDS_P1;SDS_P2;PMS_P1;PMS_P2;Temp;Humidity;BMP_temperature;BMP_pressure;BME280_temperature;BME280_humidity;BME280_pressure;Samples;Min_cycle;Max_cycle;Signal;HPM_P1;HPM_P2
2023/08/16 00:02:17;;;;;;;6.80;5.80;;;19.30;99.90;;;;;;4904610;29;20107;-83
2023/08/16 00:04:43;;;;;;;8.13;6.15;;;19.20;99.90;;;;;;4904335;29;20024;-83
2023/08/16 00:07:09;;;;;;;8.10;5.93;;;19.20;99.90;;;;;;4904128;29;20060;-83
2023/08/16 00:09:34;;;;;;;8.02;6.63;;;19.20;99.90;;;;;;4906859;29;20036;-83
2023/08/16 00:12:00;;;;;;;8.57;6.20;;;19.20;99.90;;;;;;4905685;29;20039;-84
2023/08/16 00:14:25;;;;;;;8.90;6.60;;;19.10;99.90;;;;;;4905178;29;20032;-84
2023/08/16 00:16:51;;;;;;;7.88;6.22;;;19.10;99.90;;;;;;4903264;29;20059;-83
2023/08/16 00:19:17;;;;;;;12.57;6.88;;;19.10;99.90;;;;;;4904294;29;20032;-83
2023/08/16 00:21:43;;;;;;;11.15;6.25;;;19.10;99.90;;;;;;4903570;29;20132;-84
2023/08/16 00:24:09;;;;;;;10.45;6.40;;;19.10;99.90;;;;;;4905555;29;20034;-83
2023/08/16 00:26:34;;;;;;;9.15;6.28;;;19.10;99.90;;;;;;4902436;29;20086;-84
2023/08/16 00:29:01;;;;;;;8.13;6.90;;;19.00;99.90;;;;;;4903891;29;20694;-83
2023/08/16 00:31:27;;;;;;;8.95;5.82;;;19.00;99.90;;;;;;4902280;29;20514;-84
2023/08/16 00:33:52;;;;;;;8.00;5.70;;;19.00;99.90;;;;;;4903162;29;20056;-84
2023/08/16 00:36:18;;;;;;;7.70;6.00;;;19.00;99.90;;;;;;4902503;29;20028;-83
2023/08/16 00:38:44;;;;;;;9.50;5.95;;;19.00;99.90;;;;;;4902492;29;20088;-83
2023/08/16 00:41:13;;;;;;;9.70;6.18;;;19.00;99.90;;;;;;4903423;29;20123;-84
2023/08/16 00:43:39;;;;;;;10.05;5.97;;;19.10;99.90;;;;;;4904293;29;20027;-83
2023/08/16 00:46:10;;;;;;;7.47;5.45;;;19.00;99.90;;;;;;4903804;29;20093;-84
2023/08/16 00:48:38;;;;;;;8.65;5.20;;;19.00;99.90;;;;;;4903470;29;20115;-83
2023/08/16 00:51:04;;;;;;;7.13;5.22;;;19.10;99.90;;;;;;4901843;29;20044;-83
2023/08/16 00:53:31;;;;;;;9.23;5.40;;;19.00;99.90;;;;;;4903906;29;20720;-84
2023/08/16 00:56:01;;;;;;;8.93;6.07;;;19.00;99.90;;;;;;4903267;29;20032;-84
2023/08/16 00:58:26;;;;;;;10.05;6.25;;;19.00;99.90;;;;;;4902690;29;20092;-83
2023/08/16 01:00:52;;;;;;;7.25;6.05;;;19.00;99.90;;;;;;4905047;29;20032;-83
2023/08/16 01:03:18;;;;;;;9.55;6.22;;;19.00;99.90;;;;;;4902208;29;21413;-83
2023/08/16 01:05:43;;;;;;;10.27;6.68;;;19.00;99.90;;;;;;4903998;29;20056;-84
2023/08/16 01:08:09;;;;;;;9.60;5.32;;;19.00;99.90;;;;;;4901640;29;20771;-83
2023/08/16 01:10:58;;;;;;;7.95;5.68;;;19.00;99.90;;;;;;4903325;29;20112;-84
2023/08/16 01:13:34;;;;;;;8.07;6.20;;;18.90;99.90;;;;;;4901608;29;20039;-83
2023/08/16 01:16:07;;;;;;;9.10;6.28;;;18.90;99.90;;;;;;4900574;29;20048;-84
2023/08/16 01:18:34;;;;;;;8.60;5.28;;;18.90;99.90;;;;;;4897929;29;20623;-84
2023/08/16 01:21:00;;;;;;;8.75;5.30;;;18.90;99.90;;;;;;4899800;29;20043;-83
2023/08/16 01:23:29;;;;;;;10.23;5.90;;;18.90;99.90;;;;;;4900780;29;21452;-84
2023/08/16 01:26:12;;;;;;;10.23;5.82;;;18.90;99.90;;;;;;4901110;29;20032;-84
2023/08/16 01:28:39;;;;;;;10.63;5.85;;;18.80;99.90;;;;;;4898589;29;20032;-84
2023/08/16 01:31:05;;;;;;;6.53;4.88;;;18.90;99.90;;;;;;4898238;29;20036;-84
2023/08/16 01:33:30;;;;;;;9.77;5.93;;;18.80;99.90;;;;;;4901032;29;20028;-83
2023/08/16 01:35:56;;;;;;;10.68;5.50;;;18.90;99.90;;;;;;4900863;29;20183;-83
2023/08/16 01:38:22;;;;;;;8.35;6.28;;;18.80;99.90;;;;;;4901225;29;20048;-83
2023/08/16 01:40:48;;;;;;;7.95;5.63;;;18.80;99.90;;;;;;4904153;29;20051;-83
2023/08/16 01:43:16;;;;;;;7.68;5.55;;;18.80;99.90;;;;;;4903622;29;20108;-83
2023/08/16 01:45:43;;;;;;;9.82;5.60;;;18.80;99.90;;;;;;4902096;29;20037;-83
2023/08/16 01:48:10;;;;;;;9.73;5.70;;;18.70;99.90;;;;;;4909614;29;20096;-84
2023/08/16 01:50:36;;;;;;;9.68;5.80;;;18.70;99.90;;;;;;4903163;29;20035;-83
2023/08/16 01:53:02;;;;;;;7.38;5.40;;;18.70;99.90;;;;;;4905768;29;20092;-83
2023/08/16 01:55:27;;;;;;;6.55;4.85;;;18.70;99.90;;;;;;4905994;29;20107;-83
2023/08/16 01:57:53;;;;;;;11.82;5.72;;;18.60;99.90;;;;;;4905374;29;20755;-84
2023/08/16 02:00:18;;;;;;;9.30;5.57;;;18.60;99.90;;;;;;4906346;29;20299;-82
2023/08/16 02:02:44;;;;;;;7.13;5.63;;;18.60;99.90;;;;;;4906687;29;20039;-83
2023/08/16 02:05:09;;;;;;;6.72;5.78;;;18.60;99.90;;;;;;4906758;29;21436;-83
2023/08/16 02:07:35;;;;;;;7.28;5.07;;;18.50;99.90;;;;;;4905766;29;20035;-83
2023/08/16 02:10:00;;;;;;;7.75;5.22;;;18.50;99.90;;;;;;4907720;29;20115;-83
2023/08/16 02:12:26;;;;;;;6.05;4.97;;;18.50;99.90;;;;;;4907905;29;20087;-83
2023/08/16 02:14:51;;;;;;;12.70;5.57;;;18.40;99.90;;;;;;4905609;29;20750;-84
2023/08/16 02:17:17;;;;;;;7.85;5.22;;;18.40;99.90;;;;;;4905312;29;20393;-83
2023/08/16 02:19:43;;;;;;;7.18;5.18;;;18.40;99.90;;;;;;4904871;29;20732;-83
2023/08/16 02:22:08;;;;;;;12.07;5.55;;;18.40;99.90;;;;;;4905932;29;20474;-83
2023/08/16 02:24:34;;;;;;;9.50;5.22;;;18.30;99.90;;;;;;4906598;29;20044;-84
2023/08/16 02:26:59;;;;;;;6.45;5.00;;;18.30;99.90;;;;;;4905942;29;20032;-83
2023/08/16 02:29:25;;;;;;;10.95;5.35;;;18.30;99.90;;;;;;4905558;29;20028;-83
2023/08/16 02:31:50;;;;;;;7.85;5.00;;;18.30;99.90;;;;;;4905512;29;21704;-83
2023/08/16 02:34:16;;;;;;;8.60;5.03;;;18.30;99.90;;;;;;4908864;29;20039;-84
2023/08/16 02:36:41;;;;;;;8.55;5.60;;;18.30;99.90;;;;;;4906779;29;20115;-83
2023/08/16 02:39:08;;;;;;;9.35;5.05;;;18.30;99.90;;;;;;4906366;29;20139;-83
2023/08/16 02:41:34;;;;;;;7.15;5.50;;;18.30;99.90;;;;;;4905890;29;20048;-83
2023/08/16 02:44:00;;;;;;;8.32;5.63;;;18.30;99.90;;;;;;4906466;29;20036;-83
2023/08/16 02:46:25;;;;;;;11.48;5.65;;;18.30;99.90;;;;;;4907425;29;20036;-83
2023/08/16 02:48:51;;;;;;;8.82;5.20;;;18.30;99.90;;;;;;4907224;29;20032;-84
2023/08/16 02:51:16;;;;;;;7.35;5.40;;;18.20;99.90;;;;;;4905352;29;20016;-83
2023/08/16 02:53:42;;;;;;;8.88;5.35;;;18.20;99.90;;;;;;4905951;29;20530;-83
2023/08/16 02:56:07;;;;;;;10.10;6.22;;;18.20;99.90;;;;;;4905834;29;20056;-83
2023/08/16 02:58:33;;;;;;;9.05;5.65;;;18.20;99.90;;;;;;4905542;29;20051;-83
2023/08/16 03:00:58;;;;;;;8.95;6.32;;;18.10;99.90;;;;;;4904939;29;20035;-83
2023/08/16 03:03:24;;;;;;;7.75;5.25;;;18.10;99.90;;;;;;4907433;29;20132;-82
2023/08/16 03:05:49;;;;;;;10.02;5.72;;;18.10;99.90;;;;;;4907260;29;20030;-83
2023/08/16 03:08:15;;;;;;;12.77;5.70;;;18.10;99.90;;;;;;4903348;29;20048;-83
2023/08/16 03:10:40;;;;;;;7.15;5.25;;;18.10;99.90;;;;;;4905292;29;20033;-83
2023/08/16 03:13:06;;;;;;;8.45;5.47;;;18.10;99.90;;;;;;4904434;29;20415;-83
2023/08/16 03:15:33;;;;;;;10.07;5.43;;;18.00;99.90;;;;;;4904940;29;20024;-83
2023/08/16 03:17:58;;;;;;;8.65;5.32;;;18.00;99.90;;;;;;4905379;29;20385;-83
2023/08/16 03:20:24;;;;;;;9.80;5.25;;;18.00;99.90;;;;;;4905705;29;20024;-83
2023/08/16 03:22:49;;;;;;;10.18;5.38;;;17.90;99.90;;;;;;4904672;29;20595;-83
2023/08/16 03:25:16;;;;;;;8.00;5.28;;;17.90;99.90;;;;;;4904458;29;20127;-83
2023/08/16 03:27:41;;;;;;;12.90;6.28;;;17.90;99.90;;;;;;4905230;29;20036;-83
2023/08/16 03:30:07;;;;;;;10.43;6.15;;;17.80;99.90;;;;;;4905159;29;20739;-84
2023/08/16 03:32:33;;;;;;;7.38;5.55;;;17.70;99.90;;;;;;4905829;29;20484;-84
2023/08/16 03:34:58;;;;;;;9.27;5.95;;;17.70;99.90;;;;;;4904566;29;20047;-83
2023/08/16 03:37:24;;;;;;;8.88;5.57;;;17.70;99.90;;;;;;4901203;29;20040;-83
2023/08/16 03:39:51;;;;;;;7.18;5.60;;;17.70;99.90;;;;;;4903066;29;20453;-83
2023/08/16 03:42:17;;;;;;;8.38;5.32;;;17.60;99.90;;;;;;4902397;29;20032;-83
2023/08/16 03:44:42;;;;;;;7.80;5.00;;;17.60;99.90;;;;;;4905669;29;20111;-83
2023/08/16 03:47:08;;;;;;;7.10;5.07;;;17.60;99.90;;;;;;4902445;29;20044;-83
2023/08/16 03:49:33;;;;;;;8.38;5.93;;;17.50;99.90;;;;;;4904030;29;20032;-83
2023/08/16 03:51:59;;;;;;;6.78;5.57;;;17.50;99.90;;;;;;4903627;29;20471;-84
2023/08/16 03:54:24;;;;;;;9.43;4.60;;;17.40;99.90;;;;;;4902317;29;20135;-83
2023/08/16 03:56:50;;;;;;;9.68;6.35;;;17.40;99.90;;;;;;4903085;29;20041;-83
2023/08/16 03:59:15;;;;;;;9.07;5.82;;;17.40;99.90;;;;;;4902795;29;20039;-83
2023/08/16 04:01:41;;;;;;;11.48;5.68;;;17.30;99.90;;;;;;4903721;29;20056;-83
2023/08/16 04:04:07;;;;;;;7.63;5.22;;;17.30;99.90;;;;;;4903652;29;20043;-84
2023/08/16 04:06:32;;;;;;;9.15;5.43;;;17.30;99.90;;;;;;4903104;29;20168;-83
2023/08/16 04:08:58;;;;;;;8.45;5.72;;;17.20;99.90;;;;;;4904549;29;20032;-83
2023/08/16 04:11:23;;;;;;;9.00;5.63;;;17.30;99.90;;;;;;4902105;29;20180;-78
2023/08/16 04:13:49;;;;;;;8.82;5.50;;;17.20;99.90;;;;;;4897253;29;20032;-78
2023/08/16 04:16:14;;;;;;;9.30;6.10;;;17.20;99.90;;;;;;4897506;29;20043;-78
2023/08/16 04:18:40;;;;;;;9.90;6.93;;;17.20;99.90;;;;;;4895347;29;20174;-78
2023/08/16 04:21:05;;;;;;;9.02;5.63;;;17.20;99.90;;;;;;4900266;29;20079;-78
2023/08/16 04:23:31;;;;;;;8.65;5.43;;;17.10;99.90;;;;;;4898481;29;20023;-78
2023/08/16 04:25:57;;;;;;;9.73;6.10;;;17.10;99.90;;;;;;4896865;29;20036;-78
2023/08/16 04:28:22;;;;;;;8.73;5.43;;;17.10;99.90;;;;;;4896971;29;20036;-78
2023/08/16 04:30:48;;;;;;;8.95;5.80;;;17.10;99.90;;;;;;4897442;29;20083;-78
2023/08/16 04:33:13;;;;;;;6.00;5.40;;;17.10;99.90;;;;;;4899726;29;20514;-78
2023/08/16 04:35:39;;;;;;;9.05;6.13;;;17.10;99.90;;;;;;4896801;29;20032;-78
2023/08/16 04:38:04;;;;;;;6.95;5.88;;;17.10;99.90;;;;;;4895460;29;20071;-77
2023/08/16 04:40:30;;;;;;;8.82;5.57;;;17.10;99.90;;;;;;4895950;29;20465;-77
2023/08/16 04:42:55;;;;;;;8.18;5.53;;;17.10;99.90;;;;;;4896542;29;21058;-77
2023/08/16 04:45:21;;;;;;;7.13;5.45;;;17.10;99.90;;;;;;4895947;29;20032;-77
2023/08/16 04:47:46;;;;;;;7.80;5.05;;;17.10;99.90;;;;;;4898781;29;20075;-77
2023/08/16 04:50:12;;;;;;;9.90;5.25;;;17.10;99.90;;;;;;4896118;29;20035;-77
2023/08/16 04:52:38;;;;;;;8.45;6.03;;;17.10;99.90;;;;;;4896816;29;20028;-77
2023/08/16 04:55:05;;;;;;;9.93;6.32;;;17.20;99.90;;;;;;4892684;29;20465;-77
2023/08/16 04:57:31;;;;;;;8.23;5.93;;;17.20;99.90;;;;;;4894105;29;20139;-77
2023/08/16 04:59:56;;;;;;;7.93;5.55;;;17.20;99.90;;;;;;4896126;29;20123;-77
2023/08/16 05:02:22;;;;;;;9.50;5.47;;;17.20;99.90;;;;;;4896690;29;20135;-77
2023/08/16 05:04:48;;;;;;;10.93;5.55;;;17.20;99.90;;;;;;4897319;29;20033;-78
2023/08/16 05:07:13;;;;;;;7.78;5.30;;;17.30;99.90;;;;;;4896433;29;20028;-77
2023/08/16 05:09:39;;;;;;;6.45;5.05;;;17.30;99.90;;;;;;4895391;29;20102;-77
2023/08/16 05:12:04;;;;;;;8.05;5.13;;;17.30;99.90;;;;;;4896267;29;20036;-77
2023/08/16 05:14:30;;;;;;;7.45;5.55;;;17.30;99.90;;;;;;4897244;29;20028;-77
2023/08/16 05:16:56;;;;;;;10.27;5.97;;;17.40;99.90;;;;;;4893562;29;20040;-77
2023/08/16 05:19:21;;;;;;;7.00;5.28;;;17.40;99.90;;;;;;4894208;29;20028;-76
2023/08/16 05:21:47;;;;;;;9.48;5.18;;;17.50;99.90;;;;;;4894443;29;20036;-77
2023/08/16 05:24:12;;;;;;;6.07;5.40;;;17.50;99.90;;;;;;4895704;29;20035;-77
2023/08/16 05:26:38;;;;;;;7.50;5.30;;;17.50;99.90;;;;;;4897247;29;20165;-77
2023/08/16 05:29:03;;;;;;;10.55;6.55;;;17.60;99.90;;;;;;4900882;29;20068;-77
2023/08/16 05:31:29;;;;;;;9.00;6.97;;;17.70;99.90;;;;;;4899381;29;20039;-77
2023/08/16 05:33:54;;;;;;;7.93;6.50;;;17.70;99.90;;;;;;4899896;29;20036;-77
2023/08/16 05:36:20;;;;;;;12.13;6.88;;;17.80;99.90;;;;;;4897941;29;20125;-77
2023/08/16 05:38:46;;;;;;;10.65;7.03;;;17.90;99.90;;;;;;4899303;29;20032;-77
2023/08/16 05:41:11;;;;;;;9.23;6.43;;;18.00;99.90;;;;;;4898032;29;20043;-77
2023/08/16 05:43:37;;;;;;;10.32;6.05;;;18.10;99.90;;;;;;4899048;29;20950;-77
2023/08/16 05:46:02;;;;;;;12.02;6.55;;;18.20;99.90;;;;;;4899238;29;20037;-77
2023/08/16 05:48:28;;;;;;;10.93;6.05;;;18.20;99.90;;;;;;4897921;29;20051;-77
2023/08/16 05:50:54;;;;;;;10.02;6.78;;;18.30;99.90;;;;;;4897608;29;20028;-77
2023/08/16 05:53:19;;;;;;;15.32;6.78;;;18.40;99.90;;;;;;4897737;29;20084;-77
2023/08/16 05:55:45;;;;;;;12.98;6.55;;;18.50;99.90;;;;;;4898720;29;20040;-77
2023/08/16 05:58:11;;;;;;;10.27;6.40;;;18.60;99.90;;;;;;4898653;29;21400;-77
2023/08/16 06:00:36;;;;;;;12.27;7.15;;;18.70;99.90;;;;;;4897337;29;20453;-77
2023/08/16 06:03:02;;;;;;;12.43;6.25;;;18.90;99.90;;;;;;4897265;29;20040;-77
2023/08/16 06:05:28;;;;;;;13.90;6.45;;;19.00;99.90;;;;;;4891950;29;20096;-77
2023/08/16 06:07:54;;;;;;;10.25;5.65;;;19.00;99.90;;;;;;4892858;29;20020;-77
2023/08/16 06:10:20;;;;;;;9.57;5.32;;;19.10;99.90;;;;;;4892745;29;20032;-76
2023/08/16 06:12:45;;;;;;;10.77;5.43;;;19.20;99.90;;;;;;4891793;29;20036;-77
2023/08/16 06:15:11;;;;;;;11.75;5.70;;;19.30;99.90;;;;;;4891043;29;20040;-77
2023/08/16 06:17:43;;;;;;;10.57;5.55;;;19.40;99.90;;;;;;4891352;29;20140;-77
2023/08/16 06:20:10;;;;;;;7.93;5.20;;;19.60;99.90;;;;;;4886560;29;20028;-79
2023/08/16 06:22:37;;;;;;;12.57;5.88;;;19.70;99.90;;;;;;4892820;29;20032;-79
2023/08/16 06:25:06;;;;;;;9.95;5.40;;;19.80;99.90;;;;;;4892707;29;21373;-78
2023/08/16 06:27:33;;;;;;;8.48;5.65;;;19.90;99.90;;;;;;4891470;29;21432;-77
2023/08/16 06:29:58;;;;;;;9.90;5.93;;;20.00;99.90;;;;;;4884513;29;20115;-78
2023/08/16 06:32:24;;;;;;;9.77;6.03;;;20.10;99.90;;;;;;4889693;29;20781;-77
2023/08/16 06:34:50;;;;;;;8.77;5.28;;;20.20;99.90;;;;;;4891558;29;20027;-76
2023/08/16 06:37:15;;;;;;;17.45;5.45;;;20.30;99.90;;;;;;4890581;29;20045;-77
2023/08/16 06:39:42;;;;;;;11.93;5.32;;;20.40;99.90;;;;;;4891520;29;20036;-77
2023/08/16 06:42:09;;;;;;;9.15;4.60;;;20.60;99.90;;;;;;4892512;29;20035;-77
2023/08/16 06:44:35;;;;;;;7.80;4.63;;;20.60;99.90;;;;;;4891116;29;21307;-76
2023/08/16 06:47:01;;;;;;;7.28;5.25;;;20.70;99.90;;;;;;4890009;29;20040;-76
2023/08/16 06:49:26;;;;;;;11.00;4.88;;;20.80;99.90;;;;;;4892324;29;20036;-77
2023/08/16 06:51:52;;;;;;;8.20;4.32;;;20.90;99.90;;;;;;4891938;29;20056;-76
2023/08/16 06:54:17;;;;;;;9.30;4.90;;;21.00;99.90;;;;;;4891980;29;20040;-76
2023/08/16 06:56:43;;;;;;;8.95;4.72;;;21.00;99.90;;;;;;4888930;29;20923;-77
2023/08/16 06:59:08;;;;;;;10.10;5.05;;;21.10;99.90;;;;;;4890368;29;20032;-77
2023/08/16 07:01:34;;;;;;;8.10;3.80;;;21.10;99.90;;;;;;4889235;29;20127;-77
2023/08/16 07:03:59;;;;;;;8.80;4.28;;;21.20;99.90;;;;;;4890107;29;20028;-77
2023/08/16 07:06:26;;;;;;;7.38;4.32;;;21.30;99.90;;;;;;4887067;29;20036;-76
2023/08/16 07:08:52;;;;;;;6.80;4.00;;;21.40;99.90;;;;;;4888158;29;20028;-77
2023/08/16 07:11:18;;;;;;;6.57;3.45;;;21.40;99.90;;;;;;4889608;29;20582;-77
2023/08/16 07:13:43;;;;;;;7.90;3.88;;;21.50;99.90;;;;;;4890353;29;20043;-77
2023/08/16 07:16:09;;;;;;;4.93;3.80;;;21.50;99.90;;;;;;4886802;29;20032;-77
2023/08/16 07:18:34;;;;;;;6.55;3.30;;;21.60;99.90;;;;;;4890268;29;20056;-78
2023/08/16 07:21:00;;;;;;;5.90;3.80;;;21.70;99.90;;;;;;4893233;29;20036;-78
2023/08/16 07:23:26;;;;;;;6.90;3.20;;;21.70;99.90;;;;;;4891624;29;20032;-77
2023/08/16 07:25:56;;;;;;;5.13;3.15;;;21.80;99.90;;;;;;4889647;29;20060;-78
2023/08/16 07:28:26;;;;;;;5.07;3.30;;;21.80;99.90;;;;;;4889876;29;20507;-78
2023/08/16 07:30:53;;;;;;;6.25;3.35;;;21.90;99.90;;;;;;4892518;29;20040;-78
2023/08/16 07:33:21;;;;;;;4.13;3.35;;;21.90;99.90;;;;;;4889101;29;21911;-77
2023/08/16 07:35:47;;;;;;;4.32;3.50;;;22.00;99.90;;;;;;4889890;29;20028;-76
2023/08/16 07:38:13;;;;;;;5.57;3.42;;;22.00;99.90;;;;;;4889413;29;20041;-78
2023/08/16 07:40:39;;;;;;;5.07;3.45;;;22.10;99.90;;;;;;4891970;29;20040;-79
2023/08/16 07:43:05;;;;;;;6.20;3.40;;;22.20;99.90;;;;;;4891852;29;20063;-79
2023/08/16 07:45:30;;;;;;;5.63;3.40;;;22.30;99.90;;;;;;4890122;29;20470;-78
2023/08/16 07:47:56;;;;;;;6.10;2.90;;;22.30;99.90;;;;;;4897285;29;20037;-77
2023/08/16 07:50:21;;;;;;;5.90;3.30;;;22.50;99.90;;;;;;4896155;29;20044;-78
2023/08/16 07:52:49;;;;;;;4.00;2.90;;;22.50;99.90;;;;;;4897472;29;20024;-78
2023/08/16 07:55:15;;;;;;;6.20;2.85;;;22.60;99.90;;;;;;4897503;29;20621;-78
2023/08/16 07:57:41;;;;;;;5.82;3.10;;;22.70;99.90;;;;;;4896833;29;20052;-78
2023/08/16 08:00:11;;;;;;;4.75;2.53;;;22.80;99.90;;;;;;4894078;29;20043;-79
2023/08/16 08:02:37;;;;;;;5.22;3.03;;;22.80;99.90;;;;;;4896925;29;20096;-78
2023/08/16 08:05:05;;;;;;;6.28;3.15;;;22.90;99.90;;;;;;4897326;29;20028;-79
2023/08/16 08:07:30;;;;;;;5.63;3.35;;;23.00;99.90;;;;;;4897164;29;20527;-78
2023/08/16 08:09:57;;;;;;;8.30;3.45;;;23.10;99.90;;;;;;4894738;29;20040;-79
2023/08/16 08:12:23;;;;;;;11.10;3.35;;;23.20;99.90;;;;;;4896486;29;20040;-83
2023/08/16 08:14:49;;;;;;;5.18;2.85;;;23.20;99.90;;;;;;4896486;29;20032;-84
2023/08/16 08:17:15;;;;;;;5.75;2.95;;;23.40;99.90;;;;;;4896194;29;20423;-85
2023/08/16 08:19:41;;;;;;;5.57;2.58;;;23.50;99.90;;;;;;4897468;29;20032;-84
2023/08/16 08:22:06;;;;;;;4.57;2.45;;;23.70;99.90;;;;;;4894266;29;20060;-84
2023/08/16 08:24:32;;;;;;;4.38;2.65;;;23.70;99.90;;;;;;4894241;29;20640;-84
2023/08/16 08:26:57;;;;;;;7.07;2.72;;;23.70;99.90;;;;;;4896052;29;20037;-84
2023/08/16 08:29:26;;;;;;;5.63;2.35;;;23.70;99.90;;;;;;4896759;29;20116;-84
2023/08/16 08:31:53;;;;;;;5.22;2.50;;;23.80;99.90;;;;;;4896515;29;20111;-83
2023/08/16 08:34:19;;;;;;;5.97;2.58;;;23.90;99.90;;;;;;4896497;29;20147;-84
2023/08/16 08:36:44;;;;;;;5.47;2.65;;;24.00;99.90;;;;;;4894279;29;20055;-84
2023/08/16 08:39:10;;;;;;;6.03;2.63;;;24.00;99.90;;;;;;4895316;29;20037;-84
2023/08/16 08:41:37;;;;;;;4.07;2.35;;;24.10;99.90;;;;;;4891719;29;22014;-83
2023/08/16 08:44:04;;;;;;;4.65;2.50;;;24.20;99.90;;;;;;4894234;29;20040;-83
2023/08/16 08:46:30;;;;;;;3.88;2.70;;;24.20;99.90;;;;;;4892106;29;20776;-84
2023/08/16 08:49:02;;;;;;;4.20;2.28;;;24.30;99.90;;;;;;4897692;29;20084;-84
2023/08/16 08:51:30;;;;;;;3.85;2.20;;;24.40;99.90;;;;;;4893018;29;20123;-82
2023/08/16 08:53:56;;;;;;;8.55;2.58;;;24.50;99.90;;;;;;4898254;29;20032;-82
2023/08/16 08:56:23;;;;;;;3.72;2.40;;;24.70;99.90;;;;;;4898909;29;20025;-82
2023/08/16 08:58:50;;;;;;;4.57;2.38;;;24.70;99.90;;;;;;4898063;29;20718;-82
2023/08/16 09:01:17;;;;;;;6.18;2.50;;;24.80;99.90;;;;;;4894591;29;20040;-82
2023/08/16 09:03:45;;;;;;;4.07;2.38;;;24.90;99.90;;;;;;4897697;29;20107;-82
2023/08/16 09:06:12;;;;;;;5.53;2.42;;;25.00;99.90;;;;;;4896160;29;21355;-83
2023/08/16 09:08:37;;;;;;;4.93;2.50;;;25.10;99.90;;;;;;4894843;29;20040;-82
2023/08/16 09:11:03;;;;;;;6.10;2.45;;;25.20;99.90;;;;;;4895975;29;20037;-82
2023/08/16 09:13:30;;;;;;;4.60;2.60;;;25.30;99.90;;;;;;4895368;29;20044;-83
2023/08/16 09:15:55;;;;;;;6.65;2.95;;;25.50;99.90;;;;;;4896138;29;20097;-82
2023/08/16 09:18:22;;;;;;;6.93;2.85;;;25.60;99.90;;;;;;4894728;29;20135;-83
2023/08/16 09:20:49;;;;;;;3.80;2.28;;;25.70;99.90;;;;;;4897305;29;20044;-86
2023/08/16 09:23:18;;;;;;;6.60;2.20;;;25.90;99.90;;;;;;4895519;29;20039;-83
2023/08/16 09:25:47;;;;;;;6.15;2.28;;;26.10;99.90;;;;;;4896140;29;20037;-82
2023/08/16 09:28:14;;;;;;;4.80;1.80;;;26.40;99.90;;;;;;4895809;29;20060;-83
2023/08/16 09:30:43;;;;;;;5.22;2.03;;;26.50;99.90;;;;;;4895905;29;20040;-83
2023/08/16 09:33:12;;;;;;;5.93;2.00;;;26.60;99.90;;;;;;4898079;29;20107;-83
2023/08/16 09:35:45;;;;;;;4.85;2.13;;;26.80;99.90;;;;;;4896967;29;20479;-82
2023/08/16 09:38:13;;;;;;;4.47;2.00;;;27.00;99.90;;;;;;4895926;29;20040;-83
2023/08/16 09:40:53;;;;;;;5.45;1.90;;;27.20;99.90;;;;;;4895233;29;20044;-82
2023/08/16 09:43:20;;;;;;;6.57;2.05;;;27.40;99.90;;;;;;4896390;29;20543;-82
2023/08/16 09:45:53;;;;;;;4.13;1.90;;;27.70;99.90;;;;;;4895859;29;20448;-83
2023/08/16 09:48:24;;;;;;;3.70;2.08;;;27.80;99.90;;;;;;4894921;29;20032;-83
2023/08/16 09:50:49;;;;;;;8.82;2.50;;;28.00;99.90;;;;;;4896183;29;20032;-84
2023/08/16 09:53:15;;;;;;;3.60;2.15;;;28.20;99.90;;;;;;4895275;29;20025;-83
2023/08/16 09:55:42;;;;;;;4.22;2.20;;;28.30;99.90;;;;;;4895740;29;20035;-83
2023/08/16 09:58:08;;;;;;;3.65;2.00;;;28.60;99.90;;;;;;4895347;29;20522;-83
2023/08/16 10:00:34;;;;;;;3.88;2.05;;;28.80;99.90;;;;;;4897558;29;20021;-83
2023/08/16 10:03:01;;;;;;;4.32;2.10;;;28.90;99.90;;;;;;4895662;29;20056;-83
2023/08/16 10:05:27;;;;;;;5.72;2.25;;;29.00;99.90;;;;;;4894093;29;20028;-83
2023/08/16 10:07:59;;;;;;;5.25;2.65;;;29.00;99.90;;;;;;4895756;29;20029;-83
2023/08/16 10:10:25;;;;;;;6.82;2.58;;;29.30;99.90;;;;;;4895892;29;20035;-83
2023/08/16 10:12:53;;;;;;;4.68;2.13;;;29.30;99.90;;;;;;4897166;29;20070;-77
2023/08/16 10:15:19;;;;;;;4.85;2.20;;;29.40;99.90;;;;;;4899065;29;20116;-77
2023/08/16 10:17:48;;;;;;;3.17;1.92;;;29.60;99.90;;;;;;4900224;29;20052;-76
2023/08/16 10:20:26;;;;;;;6.53;2.78;;;29.70;99.90;;;;;;4900638;29;20031;-78
2023/08/16 10:23:02;;;;;;;6.47;2.67;;;29.70;99.90;;;;;;4899925;29;20025;-78
2023/08/16 10:25:33;;;;;;;4.00;2.45;;;29.80;99.90;;;;;;4900705;29;20036;-77
2023/08/16 10:28:02;;;;;;;2.88;2.03;;;29.90;99.90;;;;;;4897721;29;20089;-76
2023/08/16 10:30:29;;;;;;;3.78;2.35;;;29.80;99.90;;;;;;4898563;29;20404;-78
2023/08/16 10:33:09;;;;;;;4.75;2.30;;;29.80;99.90;;;;;;4897983;29;20031;-77
2023/08/16 10:35:35;;;;;;;5.15;2.30;;;29.90;99.90;;;;;;4898507;29;20036;-77
2023/08/16 10:38:01;;;;;;;4.65;2.13;;;29.90;99.90;;;;;;4898374;29;20036;-78
2023/08/16 10:40:27;;;;;;;4.13;2.10;;;30.00;99.90;;;;;;4898945;29;20051;-77
2023/08/16 10:42:57;;;;;;;3.13;2.08;;;30.10;99.90;;;;;;4898764;29;20444;-77
2023/08/16 10:45:28;;;;;;;7.28;2.35;;;30.20;99.90;;;;;;4898407;29;20436;-77
2023/08/16 10:47:54;;;;;;;3.67;2.17;;;30.20;99.90;;;;;;4898908;29;20391;-77
2023/08/16 10:50:20;;;;;;;4.85;2.40;;;30.30;99.90;;;;;;4899608;29;20032;-77
2023/08/16 10:52:46;;;;;;;4.22;2.40;;;30.10;99.90;;;;;;4901124;29;20548;-77
2023/08/16 10:55:11;;;;;;;7.18;1.83;;;30.20;99.90;;;;;;4898933;29;20483;-77
2023/08/16 10:57:37;;;;;;;2.70;1.88;;;30.10;99.90;;;;;;4897748;29;20028;-77
2023/08/16 11:00:09;;;;;;;3.78;2.10;;;30.30;99.90;;;;;;4899340;29;20059;-77
2023/08/16 11:02:40;;;;;;;4.45;2.33;;;30.30;99.90;;;;;;4898496;29;21037;-77
2023/08/16 11:05:14;;;;;;;3.25;1.92;;;30.30;99.90;;;;;;4899493;29;20901;-77
2023/08/16 11:07:43;;;;;;;6.32;2.22;;;30.50;99.90;;;;;;4899586;29;20115;-78
2023/08/16 11:10:09;;;;;;;3.13;2.00;;;30.70;99.90;;;;;;4897841;29;20043;-77
2023/08/16 11:12:34;;;;;;;7.45;2.10;;;31.10;99.90;;;;;;4897804;29;20095;-78
2023/08/16 11:15:00;;;;;;;4.35;2.00;;;31.00;99.90;;;;;;4899737;29;20051;-78
2023/08/16 11:17:27;;;;;;;4.07;2.00;;;30.90;99.90;;;;;;4896208;29;20139;-77
2023/08/16 11:19:53;;;;;;;2.78;1.80;;;30.90;99.90;;;;;;4897405;29;20069;-78
2023/08/16 11:22:20;;;;;;;4.43;1.90;;;30.90;99.90;;;;;;4899837;29;20544;-77
2023/08/16 11:24:47;;;;;;;2.35;1.90;;;31.10;99.90;;;;;;4898875;29;20055;-77
2023/08/16 11:27:12;;;;;;;3.35;2.00;;;31.00;99.90;;;;;;4896365;29;20047;-77
2023/08/16 11:29:38;;;;;;;5.22;2.08;;;31.00;99.90;;;;;;4894179;29;20169;-76
2023/08/16 11:32:04;;;;;;;3.17;1.80;;;30.90;99.90;;;;;;4892850;29;20036;-76
2023/08/16 11:34:32;;;;;;;2.58;1.65;;;30.90;99.90;;;;;;4890838;29;20787;-76
2023/08/16 11:36:58;;;;;;;2.83;1.75;;;31.10;99.90;;;;;;4891489;29;20096;-77
2023/08/16 11:39:25;;;;;;;3.92;1.88;;;31.20;99.90;;;;;;4892546;29;20025;-77
2023/08/16 11:41:51;;;;;;;3.20;1.90;;;31.20;99.90;;;;;;4890940;29;20080;-78
2023/08/16 11:44:18;;;;;;;4.22;1.85;;;31.30;99.90;;;;;;4896710;29;20059;-78
2023/08/16 11:46:47;;;;;;;3.67;2.00;;;31.40;99.90;;;;;;4895122;29;20720;-77
2023/08/16 11:49:14;;;;;;;4.28;2.33;;;31.50;99.90;;;;;;4894020;29;20036;-76
2023/08/16 11:51:41;;;;;;;3.28;1.90;;;31.60;99.90;;;;;;4894660;29;20032;-77
2023/08/16 11:54:08;;;;;;;4.68;1.90;;;31.70;99.90;;;;;;4898841;29;20033;-77
2023/08/16 11:56:34;;;;;;;3.78;1.70;;;31.70;99.90;;;;;;4891522;29;20035;-77
2023/08/16 11:59:00;;;;;;;3.33;1.88;;;31.80;99.90;;;;;;4892316;29;20024;-75
2023/08/16 12:01:27;;;;;;;3.95;2.13;;;31.80;99.90;;;;;;4890047;29;20040;-77
2023/08/16 12:03:53;;;;;;;5.03;2.30;;;31.70;99.90;;;;;;4893458;29;20028;-78
2023/08/16 12:06:21;;;;;;;7.55;2.10;;;31.80;99.90;;;;;;4891334;29;21039;-78
2023/08/16 12:08:51;;;;;;;11.27;2.20;;;31.80;99.90;;;;;;4891163;29;20032;-77
2023/08/16 12:11:32;;;;;;;2.90;1.80;;;32.00;99.90;;;;;;4889986;29;20032;-77
2023/08/16 12:13:58;;;;;;;3.92;2.20;;;31.90;99.90;;;;;;4893355;29;20111;-78
2023/08/16 12:16:25;;;;;;;3.60;1.80;;;31.90;99.90;;;;;;4892630;29;20032;-77
2023/08/16 12:18:50;;;;;;;3.63;1.73;;;32.00;99.90;;;;;;4891105;29;20503;-78
2023/08/16 12:21:16;;;;;;;3.33;2.10;;;32.10;99.90;;;;;;4889110;29;20074;-77
2023/08/16 12:23:41;;;;;;;8.40;2.13;;;32.40;99.90;;;;;;4892601;29;20455;-78
2023/08/16 12:26:07;;;;;;;6.50;2.20;;;32.40;99.90;;;;;;4892525;29;20051;-77
2023/08/16 12:28:33;;;;;;;4.85;2.28;;;32.40;99.90;;;;;;4891200;29;20032;-77
2023/08/16 12:30:58;;;;;;;3.83;2.30;;;32.40;99.90;;;;;;4885798;29;20042;-78
2023/08/16 12:33:24;;;;;;;3.35;2.10;;;32.40;99.90;;;;;;4888757;29;20080;-76
2023/08/16 12:35:50;;;;;;;4.03;2.20;;;32.20;99.90;;;;;;4891139;29;20423;-79
2023/08/16 12:38:15;;;;;;;4.10;2.03;;;32.20;99.90;;;;;;4894739;29;20372;-78
2023/08/16 12:40:41;;;;;;;4.45;1.75;;;32.30;99.90;;;;;;4897972;29;20032;-78
2023/08/16 12:43:07;;;;;;;3.22;1.90;;;32.40;99.90;;;;;;4899874;29;20035;-78